sensor_id;sensor_type;location;lat;lon;timestamp;temperature;humidity
15879;DHT22;61999;51.514;14.614;2023-02-28T00:01:32;-1.70;52.50
15879;DHT22;61999;51.514;14.614;2023-02-28T00:04:00;-1.70;52.60
15879;DHT22;61999;51.514;14.614;2023-02-28T00:06:29;-1.70;52.50
15879;DHT22;61999;51.514;14.614;2023-02-28T00:08:57;-1.80;52.50
15879;DHT22;61999;51.514;14.614;2023-02-28T00:11:25;-1.70;52.50
15879;DHT22;61999;51.514;14.614;2023-02-28T00:13:54;-1.80;52.50
15879;DHT22;61999;51.514;14.614;2023-02-28T00:16:24;-1.80;52.50
15879;DHT22;61999;51.514;14.614;2023-02-28T00:18:52;-1.80;52.60
15879;DHT22;61999;51.514;14.614;2023-02-28T00:21:20;-1.70;52.50
15879;DHT22;61999;51.514;14.614;2023-02-28T00:23:48;-1.80;52.50
15879;DHT22;61999;51.514;14.614;2023-02-28T00:26:16;-1.80;52.60
15879;DHT22;61999;51.514;14.614;2023-02-28T00:28:47;-1.80;52.60
15879;DHT22;61999;51.514;14.614;2023-02-28T00:31:15;-1.80;52.60
15879;DHT22;61999;51.514;14.614;2023-02-28T00:33:44;-1.80;52.60
15879;DHT22;61999;51.514;14.614;2023-02-28T00:36:12;-1.80;52.60
15879;DHT22;61999;51.514;14.614;2023-02-28T00:38:41;-1.80;52.60
15879;DHT22;61999;51.514;14.614;2023-02-28T00:41:09;-1.80;52.60
15879;DHT22;61999;51.514;14.614;2023-02-28T00:43:38;-1.80;52.60
15879;DHT22;61999;51.514;14.614;2023-02-28T00:46:07;-1.80;52.70
15879;DHT22;61999;51.514;14.614;2023-02-28T00:48:37;-1.80;52.70
15879;DHT22;61999;51.514;14.614;2023-02-28T00:51:06;-1.80;52.60
15879;DHT22;61999;51.514;14.614;2023-02-28T00:53:34;-1.80;52.60
15879;DHT22;61999;51.514;14.614;2023-02-28T00:56:02;-1.80;52.60
15879;DHT22;61999;51.514;14.614;2023-02-28T00:58:31;-1.80;52.60
15879;DHT22;61999;51.514;14.614;2023-02-28T01:00:59;-1.80;52.60
15879;DHT22;61999;51.514;14.614;2023-02-28T01:03:27;-1.80;52.60
15879;DHT22;61999;51.514;14.614;2023-02-28T01:05:55;-1.80;52.60
15879;DHT22;61999;51.514;14.614;2023-02-28T01:08:24;-1.80;52.60
15879;DHT22;61999;51.514;14.614;2023-02-28T01:10:53;-1.80;52.60
15879;DHT22;61999;51.514;14.614;2023-02-28T01:13:22;-1.80;52.50
15879;DHT22;61999;51.514;14.614;2023-02-28T01:15:54;-1.80;52.50
15879;DHT22;61999;51.514;14.614;2023-02-28T01:18:23;-1.90;52.40
15879;DHT22;61999;51.514;14.614;2023-02-28T01:20:52;-1.90;52.30
15879;DHT22;61999;51.514;14.614;2023-02-28T01:23:21;-1.90;53.00
15879;DHT22;61999;51.514;14.614;2023-02-28T01:25:51;-1.90;52.30
15879;DHT22;61999;51.514;14.614;2023-02-28T01:28:20;-1.90;52.40
15879;DHT22;61999;51.514;14.614;2023-02-28T01:30:48;-1.90;52.30
15879;DHT22;61999;51.514;14.614;2023-02-28T01:33:17;-2.00;52.20
15879;DHT22;61999;51.514;14.614;2023-02-28T01:35:45;-2.00;52.20
15879;DHT22;61999;51.514;14.614;2023-02-28T01:38:14;-2.00;52.20
15879;DHT22;61999;51.514;14.614;2023-02-28T01:40:48;-2.00;52.20
15879;DHT22;61999;51.514;14.614;2023-02-28T01:43:22;-2.00;52.00
15879;DHT22;61999;51.514;14.614;2023-02-28T01:45:53;-2.10;51.90
15879;DHT22;61999;51.514;14.614;2023-02-28T01:48:26;-2.20;51.80
15879;DHT22;61999;51.514;14.614;2023-02-28T01:51:00;-2.20;51.60
15879;DHT22;61999;51.514;14.614;2023-02-28T01:53:36;-2.30;51.60
15879;DHT22;61999;51.514;14.614;2023-02-28T01:56:10;-2.30;51.50
15879;DHT22;61999;51.514;14.614;2023-02-28T01:58:47;-2.40;51.50
15879;DHT22;61999;51.514;14.614;2023-02-28T02:01:15;-2.50;51.40
15879;DHT22;61999;51.514;14.614;2023-02-28T02:03:48;-2.60;51.40
15879;DHT22;61999;51.514;14.614;2023-02-28T02:06:22;-2.70;51.30
15879;DHT22;61999;51.514;14.614;2023-02-28T02:08:50;-2.80;51.30
15879;DHT22;61999;51.514;14.614;2023-02-28T02:11:22;-2.90;51.30
15879;DHT22;61999;51.514;14.614;2023-02-28T02:14:22;-3.00;51.40
15879;DHT22;61999;51.514;14.614;2023-02-28T02:17:18;-3.10;51.40
15879;DHT22;61999;51.514;14.614;2023-02-28T02:20:27;-3.20;51.40
15879;DHT22;61999;51.514;14.614;2023-02-28T02:23:44;-3.30;51.50
15879;DHT22;61999;51.514;14.614;2023-02-28T02:30:23;-3.50;51.70
15879;DHT22;61999;51.514;14.614;2023-02-28T02:33:32;-3.60;51.90
15879;DHT22;61999;51.514;14.614;2023-02-28T02:36:21;-3.60;52.00
15879;DHT22;61999;51.514;14.614;2023-02-28T02:38:55;-3.70;52.00
15879;DHT22;61999;51.514;14.614;2023-02-28T02:41:35;-3.80;52.10
15879;DHT22;61999;51.514;14.614;2023-02-28T02:44:12;-3.80;52.50
15879;DHT22;61999;51.514;14.614;2023-02-28T02:46:45;-3.90;52.70
15879;DHT22;61999;51.514;14.614;2023-02-28T02:49:17;-3.90;52.60
15879;DHT22;61999;51.514;14.614;2023-02-28T02:51:52;-4.00;52.60
15879;DHT22;61999;51.514;14.614;2023-02-28T02:54:24;-4.00;52.80
15879;DHT22;61999;51.514;14.614;2023-02-28T02:56:57;-4.00;53.00
15879;DHT22;61999;51.514;14.614;2023-02-28T02:59:29;-4.10;53.00
15879;DHT22;61999;51.514;14.614;2023-02-28T03:02:00;-4.10;53.20
15879;DHT22;61999;51.514;14.614;2023-02-28T03:04:34;-4.10;53.40
15879;DHT22;61999;51.514;14.614;2023-02-28T03:07:09;-4.10;53.30
15879;DHT22;61999;51.514;14.614;2023-02-28T03:09:37;-4.10;53.50
15879;DHT22;61999;51.514;14.614;2023-02-28T03:12:09;-4.10;53.80
15879;DHT22;61999;51.514;14.614;2023-02-28T03:14:50;-4.10;53.80
15879;DHT22;61999;51.514;14.614;2023-02-28T03:20:38;-4.10;53.90
15879;DHT22;61999;51.514;14.614;2023-02-28T03:23:17;-4.00;54.00
15879;DHT22;61999;51.514;14.614;2023-02-28T03:25:56;-4.00;54.10
15879;DHT22;61999;51.514;14.614;2023-02-28T03:28:32;-4.00;54.10
15879;DHT22;61999;51.514;14.614;2023-02-28T03:31:15;-4.00;54.10
15879;DHT22;61999;51.514;14.614;2023-02-28T03:33:51;-4.00;54.40
15879;DHT22;61999;51.514;14.614;2023-02-28T03:36:27;-4.00;54.30
15879;DHT22;61999;51.514;14.614;2023-02-28T03:39:01;-3.90;54.30
15879;DHT22;61999;51.514;14.614;2023-02-28T03:41:36;-3.90;54.40
15879;DHT22;61999;51.514;14.614;2023-02-28T03:44:11;-3.80;54.50
15879;DHT22;61999;51.514;14.614;2023-02-28T03:46:47;-3.80;54.50
15879;DHT22;61999;51.514;14.614;2023-02-28T03:49:22;-3.80;54.90
15879;DHT22;61999;51.514;14.614;2023-02-28T03:52:02;-3.90;55.30
15879;DHT22;61999;51.514;14.614;2023-02-28T03:54:38;-3.90;54.90
15879;DHT22;61999;51.514;14.614;2023-02-28T03:57:12;-3.90;54.70
15879;DHT22;61999;51.514;14.614;2023-02-28T03:59:51;-3.80;54.70
15879;DHT22;61999;51.514;14.614;2023-02-28T04:02:24;-3.80;54.70
15879;DHT22;61999;51.514;14.614;2023-02-28T04:04:52;-3.80;54.70
15879;DHT22;61999;51.514;14.614;2023-02-28T04:07:21;-3.70;55.00
15879;DHT22;61999;51.514;14.614;2023-02-28T04:09:50;-3.70;55.00
15879;DHT22;61999;51.514;14.614;2023-02-28T04:12:19;-3.70;54.80
15879;DHT22;61999;51.514;14.614;2023-02-28T04:14:49;-3.70;54.80
15879;DHT22;61999;51.514;14.614;2023-02-28T04:17:17;-3.70;54.70
15879;DHT22;61999;51.514;14.614;2023-02-28T04:19:45;-3.70;54.80
15879;DHT22;61999;51.514;14.614;2023-02-28T04:22:13;-3.70;54.70
15879;DHT22;61999;51.514;14.614;2023-02-28T04:24:43;-3.70;54.70
15879;DHT22;61999;51.514;14.614;2023-02-28T04:27:13;-3.70;55.30
15879;DHT22;61999;51.514;14.614;2023-02-28T04:29:42;-3.70;54.60
15879;DHT22;61999;51.514;14.614;2023-02-28T04:32:11;-3.70;54.60
15879;DHT22;61999;51.514;14.614;2023-02-28T04:34:39;-3.70;54.60
15879;DHT22;61999;51.514;14.614;2023-02-28T04:37:07;-3.70;54.50
15879;DHT22;61999;51.514;14.614;2023-02-28T04:39:40;-3.70;54.40
15879;DHT22;61999;51.514;14.614;2023-02-28T04:42:08;-3.80;54.40
15879;DHT22;61999;51.514;14.614;2023-02-28T04:44:38;-3.80;54.50
15879;DHT22;61999;51.514;14.614;2023-02-28T04:47:06;-3.90;54.30
15879;DHT22;61999;51.514;14.614;2023-02-28T04:49:34;-3.90;54.20
15879;DHT22;61999;51.514;14.614;2023-02-28T04:52:02;-3.90;54.40
15879;DHT22;61999;51.514;14.614;2023-02-28T04:54:30;-3.90;54.30
15879;DHT22;61999;51.514;14.614;2023-02-28T04:56:58;-4.00;54.30
15879;DHT22;61999;51.514;14.614;2023-02-28T04:59:28;-4.00;54.30
15879;DHT22;61999;51.514;14.614;2023-02-28T05:01:57;-4.10;54.30
15879;DHT22;61999;51.514;14.614;2023-02-28T05:04:25;-4.10;54.40
15879;DHT22;61999;51.514;14.614;2023-02-28T05:06:53;-4.10;54.40
15879;DHT22;61999;51.514;14.614;2023-02-28T05:09:21;-4.10;54.30
15879;DHT22;61999;51.514;14.614;2023-02-28T05:11:49;-4.20;54.40
15879;DHT22;61999;51.514;14.614;2023-02-28T05:14:17;-4.20;54.40
15879;DHT22;61999;51.514;14.614;2023-02-28T05:16:45;-4.30;54.40
15879;DHT22;61999;51.514;14.614;2023-02-28T05:19:15;-4.30;54.50
15879;DHT22;61999;51.514;14.614;2023-02-28T05:21:50;-4.30;54.60
15879;DHT22;61999;51.514;14.614;2023-02-28T05:24:19;-4.30;54.70
15879;DHT22;61999;51.514;14.614;2023-02-28T05:26:51;-4.30;54.60
15879;DHT22;61999;51.514;14.614;2023-02-28T05:29:20;-4.30;54.70
15879;DHT22;61999;51.514;14.614;2023-02-28T05:31:48;-4.40;54.60
15879;DHT22;61999;51.514;14.614;2023-02-28T05:34:18;-4.40;54.70
15879;DHT22;61999;51.514;14.614;2023-02-28T05:36:46;-4.40;54.60
15879;DHT22;61999;51.514;14.614;2023-02-28T05:39:14;-4.40;54.60
15879;DHT22;61999;51.514;14.614;2023-02-28T05:41:43;-4.40;54.70
15879;DHT22;61999;51.514;14.614;2023-02-28T05:44:11;-4.40;54.80
15879;DHT22;61999;51.514;14.614;2023-02-28T05:46:40;-4.40;54.90
15879;DHT22;61999;51.514;14.614;2023-02-28T05:49:08;-4.40;54.90
15879;DHT22;61999;51.514;14.614;2023-02-28T05:51:37;-4.40;54.90
15879;DHT22;61999;51.514;14.614;2023-02-28T05:54:07;-4.40;55.10
15879;DHT22;61999;51.514;14.614;2023-02-28T05:56:35;-4.40;55.10
15879;DHT22;61999;51.514;14.614;2023-02-28T05:59:05;-4.40;55.00
15879;DHT22;61999;51.514;14.614;2023-02-28T06:01:35;-4.40;55.10
15879;DHT22;61999;51.514;14.614;2023-02-28T06:04:06;-4.40;55.20
15879;DHT22;61999;51.514;14.614;2023-02-28T06:06:50;-4.30;55.30
15879;DHT22;61999;51.514;14.614;2023-02-28T06:09:18;-4.30;55.30
15879;DHT22;61999;51.514;14.614;2023-02-28T06:11:46;-4.30;55.30
15879;DHT22;61999;51.514;14.614;2023-02-28T06:14:16;-4.30;55.40
15879;DHT22;61999;51.514;14.614;2023-02-28T06:16:45;-4.20;55.40
15879;DHT22;61999;51.514;14.614;2023-02-28T06:19:13;-4.30;55.40
15879;DHT22;61999;51.514;14.614;2023-02-28T06:21:42;-4.20;55.50
15879;DHT22;61999;51.514;14.614;2023-02-28T06:24:11;-4.20;55.50
15879;DHT22;61999;51.514;14.614;2023-02-28T06:26:39;-4.20;55.50
15879;DHT22;61999;51.514;14.614;2023-02-28T06:29:07;-4.20;55.60
15879;DHT22;61999;51.514;14.614;2023-02-28T06:31:35;-4.20;55.80
15879;DHT22;61999;51.514;14.614;2023-02-28T06:34:05;-4.10;55.80
15879;DHT22;61999;51.514;14.614;2023-02-28T06:36:33;-4.10;55.80
15879;DHT22;61999;51.514;14.614;2023-02-28T06:39:01;-4.00;55.80
15879;DHT22;61999;51.514;14.614;2023-02-28T06:41:30;-4.00;55.80
15879;DHT22;61999;51.514;14.614;2023-02-28T06:44:19;-4.00;55.80
15879;DHT22;61999;51.514;14.614;2023-02-28T06:46:47;-3.90;55.90
15879;DHT22;61999;51.514;14.614;2023-02-28T06:49:16;-3.90;56.00
15879;DHT22;61999;51.514;14.614;2023-02-28T06:51:45;-3.80;56.10
15879;DHT22;61999;51.514;14.614;2023-02-28T06:54:13;-3.80;56.00
15879;DHT22;61999;51.514;14.614;2023-02-28T06:56:43;-3.70;56.10
15879;DHT22;61999;51.514;14.614;2023-02-28T06:59:11;-3.70;56.00
15879;DHT22;61999;51.514;14.614;2023-02-28T07:01:39;-3.60;56.10
15879;DHT22;61999;51.514;14.614;2023-02-28T07:04:07;-3.50;56.10
15879;DHT22;61999;51.514;14.614;2023-02-28T07:06:35;-3.50;56.00
15879;DHT22;61999;51.514;14.614;2023-02-28T07:09:03;-3.40;56.00
15879;DHT22;61999;51.514;14.614;2023-02-28T07:11:31;-3.30;56.10
15879;DHT22;61999;51.514;14.614;2023-02-28T07:14:00;-3.30;56.00
15879;DHT22;61999;51.514;14.614;2023-02-28T07:16:28;-3.20;56.00
15879;DHT22;61999;51.514;14.614;2023-02-28T07:18:56;-3.10;56.00
15879;DHT22;61999;51.514;14.614;2023-02-28T07:21:25;-3.00;55.80
15879;DHT22;61999;51.514;14.614;2023-02-28T07:23:55;-2.90;55.70
15879;DHT22;61999;51.514;14.614;2023-02-28T07:26:24;-2.80;56.30
15879;DHT22;61999;51.514;14.614;2023-02-28T07:28:52;-2.70;55.60
15879;DHT22;61999;51.514;14.614;2023-02-28T07:31:22;-2.70;55.50
15879;DHT22;61999;51.514;14.614;2023-02-28T07:33:50;-2.60;55.60
15879;DHT22;61999;51.514;14.614;2023-02-28T07:36:19;-2.50;55.60
15879;DHT22;61999;51.514;14.614;2023-02-28T07:38:48;-2.40;55.40
15879;DHT22;61999;51.514;14.614;2023-02-28T07:41:18;-2.30;55.40
15879;DHT22;61999;51.514;14.614;2023-02-28T07:43:47;-2.30;55.30
15879;DHT22;61999;51.514;14.614;2023-02-28T07:46:16;-2.20;55.30
15879;DHT22;61999;51.514;14.614;2023-02-28T07:48:48;-2.10;55.10
15879;DHT22;61999;51.514;14.614;2023-02-28T07:51:16;-2.00;55.00
15879;DHT22;61999;51.514;14.614;2023-02-28T07:53:44;-1.90;54.90
15879;DHT22;61999;51.514;14.614;2023-02-28T07:56:12;-1.80;54.80
15879;DHT22;61999;51.514;14.614;2023-02-28T07:58:40;-1.80;54.80
15879;DHT22;61999;51.514;14.614;2023-02-28T08:01:09;-1.70;54.80
15879;DHT22;61999;51.514;14.614;2023-02-28T08:03:39;-1.60;54.90
15879;DHT22;61999;51.514;14.614;2023-02-28T08:06:16;-1.60;54.80
15879;DHT22;61999;51.514;14.614;2023-02-28T08:08:46;-1.40;54.70
15879;DHT22;61999;51.514;14.614;2023-02-28T08:11:14;-1.40;54.70
15879;DHT22;61999;51.514;14.614;2023-02-28T08:13:43;-1.30;54.70
15879;DHT22;61999;51.514;14.614;2023-02-28T08:16:12;-1.20;54.70
15879;DHT22;61999;51.514;14.614;2023-02-28T08:18:44;-1.10;54.80
15879;DHT22;61999;51.514;14.614;2023-02-28T08:21:13;-1.00;54.70
15879;DHT22;61999;51.514;14.614;2023-02-28T08:23:41;-0.90;54.80
15879;DHT22;61999;51.514;14.614;2023-02-28T08:26:09;-0.70;54.90
15879;DHT22;61999;51.514;14.614;2023-02-28T08:28:37;-0.60;54.90
15879;DHT22;61999;51.514;14.614;2023-02-28T08:31:10;-0.40;55.00
15879;DHT22;61999;51.514;14.614;2023-02-28T08:33:40;-0.20;54.80
15879;DHT22;61999;51.514;14.614;2023-02-28T08:36:09;-0.10;54.80
15879;DHT22;61999;51.514;14.614;2023-02-28T08:38:38;0.20;54.10
15879;DHT22;61999;51.514;14.614;2023-02-28T08:41:08;0.30;51.30
15879;DHT22;61999;51.514;14.614;2023-02-28T08:43:38;0.50;53.50
15879;DHT22;61999;51.514;14.614;2023-02-28T08:46:07;0.70;53.70
15879;DHT22;61999;51.514;14.614;2023-02-28T08:48:36;0.80;53.40
15879;DHT22;61999;51.514;14.614;2023-02-28T08:51:06;0.90;51.20
15879;DHT22;61999;51.514;14.614;2023-02-28T08:53:38;1.10;52.40
15879;DHT22;61999;51.514;14.614;2023-02-28T08:56:10;1.40;52.50
15879;DHT22;61999;51.514;14.614;2023-02-28T08:58:39;1.70;49.70
15879;DHT22;61999;51.514;14.614;2023-02-28T09:01:09;1.90;45.60
15879;DHT22;61999;51.514;14.614;2023-02-28T09:03:39;2.20;41.30
15879;DHT22;61999;51.514;14.614;2023-02-28T09:06:09;2.20;41.10
15879;DHT22;61999;51.514;14.614;2023-02-28T09:08:39;1.90;38.90
15879;DHT22;61999;51.514;14.614;2023-02-28T09:11:08;1.90;40.40
15879;DHT22;61999;51.514;14.614;2023-02-28T09:13:37;2.10;38.50
15879;DHT22;61999;51.514;14.614;2023-02-28T09:16:08;2.50;43.30
15879;DHT22;61999;51.514;14.614;2023-02-28T09:18:38;2.70;39.30
15879;DHT22;61999;51.514;14.614;2023-02-28T09:21:09;2.50;36.00
15879;DHT22;61999;51.514;14.614;2023-02-28T09:23:42;2.50;36.70
15879;DHT22;61999;51.514;14.614;2023-02-28T09:26:14;2.30;36.70
15879;DHT22;61999;51.514;14.614;2023-02-28T09:28:43;2.00;36.00
15879;DHT22;61999;51.514;14.614;2023-02-28T09:31:12;2.30;37.30
15879;DHT22;61999;51.514;14.614;2023-02-28T09:33:42;2.20;37.10
15879;DHT22;61999;51.514;14.614;2023-02-28T09:36:10;2.30;37.20
15879;DHT22;61999;51.514;14.614;2023-02-28T09:38:38;2.50;36.40
15879;DHT22;61999;51.514;14.614;2023-02-28T09:41:13;2.60;36.30
15879;DHT22;61999;51.514;14.614;2023-02-28T09:43:46;2.60;35.90
15879;DHT22;61999;51.514;14.614;2023-02-28T09:46:27;2.80;35.70
15879;DHT22;61999;51.514;14.614;2023-02-28T09:49:00;2.70;35.70
15879;DHT22;61999;51.514;14.614;2023-02-28T09:51:37;2.80;37.00
15879;DHT22;61999;51.514;14.614;2023-02-28T09:54:15;3.30;37.50
15879;DHT22;61999;51.514;14.614;2023-02-28T09:56:49;3.90;40.70
15879;DHT22;61999;51.514;14.614;2023-02-28T09:59:31;4.30;39.00
15879;DHT22;61999;51.514;14.614;2023-02-28T10:02:35;3.90;33.00
15879;DHT22;61999;51.514;14.614;2023-02-28T10:05:22;3.80;33.70
15879;DHT22;61999;51.514;14.614;2023-02-28T10:08:07;3.90;34.90
15879;DHT22;61999;51.514;14.614;2023-02-28T10:10:43;3.90;34.20
15879;DHT22;61999;51.514;14.614;2023-02-28T10:13:17;3.50;34.50
15879;DHT22;61999;51.514;14.614;2023-02-28T10:15:53;3.60;34.30
15879;DHT22;61999;51.514;14.614;2023-02-28T10:18:27;3.80;34.80
15879;DHT22;61999;51.514;14.614;2023-02-28T10:21:01;4.20;35.10
15879;DHT22;61999;51.514;14.614;2023-02-28T10:23:34;4.60;34.70
15879;DHT22;61999;51.514;14.614;2023-02-28T10:26:12;4.60;33.70
15879;DHT22;61999;51.514;14.614;2023-02-28T10:28:44;4.20;34.10
15879;DHT22;61999;51.514;14.614;2023-02-28T10:31:17;5.10;38.20
15879;DHT22;61999;51.514;14.614;2023-02-28T10:33:47;5.80;37.70
15879;DHT22;61999;51.514;14.614;2023-02-28T10:36:17;6.40;39.40
15879;DHT22;61999;51.514;14.614;2023-02-28T10:38:48;6.90;36.50
15879;DHT22;61999;51.514;14.614;2023-02-28T10:41:27;7.50;39.10
15879;DHT22;61999;51.514;14.614;2023-02-28T10:44:19;8.20;37.60
15879;DHT22;61999;51.514;14.614;2023-02-28T10:46:50;8.80;28.80
15879;DHT22;61999;51.514;14.614;2023-02-28T10:49:22;8.50;27.70
15879;DHT22;61999;51.514;14.614;2023-02-28T10:51:54;8.60;29.40
15879;DHT22;61999;51.514;14.614;2023-02-28T10:54:28;8.80;30.20
15879;DHT22;61999;51.514;14.614;2023-02-28T10:57:14;8.50;27.20
15879;DHT22;61999;51.514;14.614;2023-02-28T10:59:50;8.70;29.80
15879;DHT22;61999;51.514;14.614;2023-02-28T11:02:31;9.00;27.80
15879;DHT22;61999;51.514;14.614;2023-02-28T11:05:01;9.40;28.10
15879;DHT22;61999;51.514;14.614;2023-02-28T11:07:30;9.80;31.60
15879;DHT22;61999;51.514;14.614;2023-02-28T11:10:19;10.30;30.00
15879;DHT22;61999;51.514;14.614;2023-02-28T11:12:49;10.60;26.70
15879;DHT22;61999;51.514;14.614;2023-02-28T11:15:23;10.70;29.00
15879;DHT22;61999;51.514;14.614;2023-02-28T11:17:54;11.30;31.00
15879;DHT22;61999;51.514;14.614;2023-02-28T11:20:27;11.30;25.50
15879;DHT22;61999;51.514;14.614;2023-02-28T11:22:59;11.00;24.60
15879;DHT22;61999;51.514;14.614;2023-02-28T11:25:32;11.00;29.20
15879;DHT22;61999;51.514;14.614;2023-02-28T11:28:03;11.00;24.60
15879;DHT22;61999;51.514;14.614;2023-02-28T11:30:37;10.90;25.30
15879;DHT22;61999;51.514;14.614;2023-02-28T11:33:22;10.50;25.40
15879;DHT22;61999;51.514;14.614;2023-02-28T11:35:57;9.90;25.80
15879;DHT22;61999;51.514;14.614;2023-02-28T11:38:28;10.00;25.90
15879;DHT22;61999;51.514;14.614;2023-02-28T11:41:10;10.00;26.90
15879;DHT22;61999;51.514;14.614;2023-02-28T11:44:09;10.70;26.50
15879;DHT22;61999;51.514;14.614;2023-02-28T11:46:56;11.40;29.20
15879;DHT22;61999;51.514;14.614;2023-02-28T11:49:35;11.90;25.50
15879;DHT22;61999;51.514;14.614;2023-02-28T11:52:19;11.50;24.60
15879;DHT22;61999;51.514;14.614;2023-02-28T11:55:01;11.50;24.60
15879;DHT22;61999;51.514;14.614;2023-02-28T11:57:55;11.40;24.70
15879;DHT22;61999;51.514;14.614;2023-02-28T12:00:50;10.70;24.70
15879;DHT22;61999;51.514;14.614;2023-02-28T12:03:39;10.40;26.40
15879;DHT22;61999;51.514;14.614;2023-02-28T12:06:22;10.90;26.60
15879;DHT22;61999;51.514;14.614;2023-02-28T12:09:04;11.50;28.60
15879;DHT22;61999;51.514;14.614;2023-02-28T12:11:51;12.00;25.80
15879;DHT22;61999;51.514;14.614;2023-02-28T12:14:34;11.40;27.30
15879;DHT22;61999;51.514;14.614;2023-02-28T12:17:29;11.90;24.90
15879;DHT22;61999;51.514;14.614;2023-02-28T12:20:17;12.60;27.30
15879;DHT22;61999;51.514;14.614;2023-02-28T12:23:01;12.80;26.00
15879;DHT22;61999;51.514;14.614;2023-02-28T12:25:54;13.30;27.30
15879;DHT22;61999;51.514;14.614;2023-02-28T12:28:34;13.70;25.20
15879;DHT22;61999;51.514;14.614;2023-02-28T12:31:19;14.10;26.70
15879;DHT22;61999;51.514;14.614;2023-02-28T12:34:31;14.60;27.60
15879;DHT22;61999;51.514;14.614;2023-02-28T12:37:10;14.40;22.40
15879;DHT22;61999;51.514;14.614;2023-02-28T12:39:45;15.00;26.40
15879;DHT22;61999;51.514;14.614;2023-02-28T12:42:27;15.30;26.30
15879;DHT22;61999;51.514;14.614;2023-02-28T12:45:02;15.80;27.20
15879;DHT22;61999;51.514;14.614;2023-02-28T12:47:38;16.40;27.00
15879;DHT22;61999;51.514;14.614;2023-02-28T12:50:10;17.00;24.00
15879;DHT22;61999;51.514;14.614;2023-02-28T12:52:50;17.30;24.90
15879;DHT22;61999;51.514;14.614;2023-02-28T12:55:31;17.70;24.90
15879;DHT22;61999;51.514;14.614;2023-02-28T12:58:11;18.00;24.10
15879;DHT22;61999;51.514;14.614;2023-02-28T13:01:05;18.30;24.40
15879;DHT22;61999;51.514;14.614;2023-02-28T13:04:14;18.50;24.10
15879;DHT22;61999;51.514;14.614;2023-02-28T13:07:16;18.40;23.40
15879;DHT22;61999;51.514;14.614;2023-02-28T13:10:02;18.50;24.30
15879;DHT22;61999;51.514;14.614;2023-02-28T13:12:34;18.60;23.10
15879;DHT22;61999;51.514;14.614;2023-02-28T13:15:07;18.70;23.20
15879;DHT22;61999;51.514;14.614;2023-02-28T13:17:39;18.80;22.80
15879;DHT22;61999;51.514;14.614;2023-02-28T13:20:16;18.90;22.00
15879;DHT22;61999;51.514;14.614;2023-02-28T13:22:52;18.90;22.50
15879;DHT22;61999;51.514;14.614;2023-02-28T13:25:53;18.90;23.00
15879;DHT22;61999;51.514;14.614;2023-02-28T13:31:27;19.10;23.50
15879;DHT22;61999;51.514;14.614;2023-02-28T13:34:13;19.20;23.30
15879;DHT22;61999;51.514;14.614;2023-02-28T13:36:43;19.30;22.50
15879;DHT22;61999;51.514;14.614;2023-02-28T13:39:45;19.40;23.50
15879;DHT22;61999;51.514;14.614;2023-02-28T13:42:34;19.60;23.60
15879;DHT22;61999;51.514;14.614;2023-02-28T13:45:24;19.80;24.00
15879;DHT22;61999;51.514;14.614;2023-02-28T13:47:58;20.00;22.50
15879;DHT22;61999;51.514;14.614;2023-02-28T13:50:31;20.10;21.40
15879;DHT22;61999;51.514;14.614;2023-02-28T13:53:26;19.90;18.20
15879;DHT22;61999;51.514;14.614;2023-02-28T13:56:26;19.40;20.50
15879;DHT22;61999;51.514;14.614;2023-02-28T13:59:13;19.50;22.00
15879;DHT22;61999;51.514;14.614;2023-02-28T14:01:57;19.40;22.00
15879;DHT22;61999;51.514;14.614;2023-02-28T14:04:59;19.40;21.60
15879;DHT22;61999;51.514;14.614;2023-02-28T14:07:32;19.10;21.30
15879;DHT22;61999;51.514;14.614;2023-02-28T14:10:15;19.10;22.20
15879;DHT22;61999;51.514;14.614;2023-02-28T14:12:57;19.20;22.60
15879;DHT22;61999;51.514;14.614;2023-02-28T14:15:56;19.10;21.10
15879;DHT22;61999;51.514;14.614;2023-02-28T14:18:50;19.20;21.00
15879;DHT22;61999;51.514;14.614;2023-02-28T14:21:25;19.30;22.10
15879;DHT22;61999;51.514;14.614;2023-02-28T14:27:27;19.50;22.40
15879;DHT22;61999;51.514;14.614;2023-02-28T14:33:25;19.70;19.70
15879;DHT22;61999;51.514;14.614;2023-02-28T14:36:16;19.70;21.90
15879;DHT22;61999;51.514;14.614;2023-02-28T14:38:49;19.60;21.40
15879;DHT22;61999;51.514;14.614;2023-02-28T14:41:22;19.70;21.00
15879;DHT22;61999;51.514;14.614;2023-02-28T14:43:54;19.60;20.80
15879;DHT22;61999;51.514;14.614;2023-02-28T14:46:28;19.50;21.40
15879;DHT22;61999;51.514;14.614;2023-02-28T14:49:04;19.50;21.60
15879;DHT22;61999;51.514;14.614;2023-02-28T14:51:33;19.50;21.70
15879;DHT22;61999;51.514;14.614;2023-02-28T14:54:03;19.50;21.30
15879;DHT22;61999;51.514;14.614;2023-02-28T14:56:36;19.10;18.90
15879;DHT22;61999;51.514;14.614;2023-02-28T14:59:28;19.00;20.70
15879;DHT22;61999;51.514;14.614;2023-02-28T15:02:23;18.80;21.00
15879;DHT22;61999;51.514;14.614;2023-02-28T15:04:54;18.80;20.90
15879;DHT22;61999;51.514;14.614;2023-02-28T15:07:24;18.60;21.10
15879;DHT22;61999;51.514;14.614;2023-02-28T15:10:10;18.60;21.40
15879;DHT22;61999;51.514;14.614;2023-02-28T15:12:52;18.40;22.20
15879;DHT22;61999;51.514;14.614;2023-02-28T15:15:39;18.40;21.40
15879;DHT22;61999;51.514;14.614;2023-02-28T15:18:33;18.30;21.50
15879;DHT22;61999;51.514;14.614;2023-02-28T15:21:12;18.20;21.00
15879;DHT22;61999;51.514;14.614;2023-02-28T15:23:46;18.10;21.40
15879;DHT22;61999;51.514;14.614;2023-02-28T15:26:21;17.90;21.40
15879;DHT22;61999;51.514;14.614;2023-02-28T15:28:54;17.80;21.50
15879;DHT22;61999;51.514;14.614;2023-02-28T15:31:28;17.70;21.30
15879;DHT22;61999;51.514;14.614;2023-02-28T15:34:19;17.50;21.40
15879;DHT22;61999;51.514;14.614;2023-02-28T15:36:50;17.20;21.20
15879;DHT22;61999;51.514;14.614;2023-02-28T15:39:23;17.00;21.40
15879;DHT22;61999;51.514;14.614;2023-02-28T15:42:11;16.80;21.20
15879;DHT22;61999;51.514;14.614;2023-02-28T15:44:40;16.50;21.40
15879;DHT22;61999;51.514;14.614;2023-02-28T15:47:16;16.30;21.40
15879;DHT22;61999;51.514;14.614;2023-02-28T15:49:50;16.10;21.50
15879;DHT22;61999;51.514;14.614;2023-02-28T15:52:24;15.80;21.30
15879;DHT22;61999;51.514;14.614;2023-02-28T15:54:55;15.60;21.50
15879;DHT22;61999;51.514;14.614;2023-02-28T15:57:27;15.30;21.60
15879;DHT22;61999;51.514;14.614;2023-02-28T15:59:59;15.10;21.70
15879;DHT22;61999;51.514;14.614;2023-02-28T16:02:32;14.90;21.80
15879;DHT22;61999;51.514;14.614;2023-02-28T16:05:20;14.60;21.80
15879;DHT22;61999;51.514;14.614;2023-02-28T16:07:54;14.20;22.00
15879;DHT22;61999;51.514;14.614;2023-02-28T16:10:26;13.90;22.00
15879;DHT22;61999;51.514;14.614;2023-02-28T16:12:56;13.60;22.00
15879;DHT22;61999;51.514;14.614;2023-02-28T16:15:27;13.20;22.00
15879;DHT22;61999;51.514;14.614;2023-02-28T16:17:57;12.80;22.00
15879;DHT22;61999;51.514;14.614;2023-02-28T16:20:28;12.40;22.10